createdAt,value
2019-02-25T00:00:32.149Z,99.90
2019-02-25T00:03:01.492Z,99.90
2019-02-25T00:05:30.925Z,99.90
2019-02-25T00:08:00.314Z,99.90
2019-02-25T00:10:29.595Z,99.90
2019-02-25T00:12:58.930Z,99.90
2019-02-25T00:15:28.312Z,99.90
2019-02-25T00:17:57.667Z,99.90
2019-02-25T00:20:26.963Z,99.90
2019-02-25T00:22:56.202Z,99.90
2019-02-25T00:25:25.597Z,99.90
2019-02-25T00:27:54.985Z,99.90
2019-02-25T00:30:24.957Z,99.90
2019-02-25T00:32:54.310Z,99.90
2019-02-25T00:35:23.628Z,99.90
2019-02-25T00:37:52.982Z,99.90
2019-02-25T00:40:22.389Z,99.90
2019-02-25T00:42:51.635Z,99.90
2019-02-25T00:45:20.928Z,99.90
2019-02-25T00:47:51.107Z,99.90
2019-02-25T00:50:20.449Z,99.90
2019-02-25T00:52:50.124Z,99.90
2019-02-25T00:55:19.447Z,99.90
2019-02-25T00:57:48.697Z,99.90
2019-02-25T01:00:18.578Z,99.90
2019-02-25T01:02:47.780Z,99.90
2019-02-25T01:05:17.413Z,99.90
2019-02-25T01:07:46.682Z,99.90
2019-02-25T01:10:18.100Z,99.90
2019-02-25T01:12:47.831Z,99.90
2019-02-25T01:15:17.655Z,99.90
2019-02-25T01:17:47.022Z,99.90
2019-02-25T01:20:16.443Z,99.90
2019-02-25T01:22:45.811Z,99.90
2019-02-25T01:25:15.233Z,99.90
2019-02-25T01:27:44.417Z,99.90
2019-02-25T01:30:14.627Z,99.90
2019-02-25T01:32:43.985Z,99.90
2019-02-25T01:35:13.309Z,99.90
2019-02-25T01:37:42.711Z,99.90
2019-02-25T01:40:12.077Z,99.90
2019-02-25T01:42:41.366Z,99.90
2019-02-25T01:45:11.897Z,99.90
2019-02-25T01:47:41.213Z,99.90
2019-02-25T01:50:11.221Z,99.90
2019-02-25T01:52:40.560Z,99.90
2019-02-25T01:55:10.013Z,99.90
2019-02-25T01:57:39.327Z,99.90
2019-02-25T02:00:11.597Z,99.90
2019-02-25T02:02:40.998Z,99.90
2019-02-25T02:05:10.365Z,99.90
2019-02-25T02:07:39.533Z,99.90
2019-02-25T02:10:10.563Z,99.90
2019-02-25T02:12:39.855Z,99.90
2019-02-25T02:15:12.275Z,99.90
2019-02-25T02:17:41.643Z,99.90
2019-02-25T02:20:12.551Z,99.90
2019-02-25T02:22:41.758Z,99.90
2019-02-25T02:25:11.365Z,99.90
2019-02-25T02:27:40.743Z,99.90
2019-02-25T02:30:13.167Z,99.90
2019-02-25T02:32:42.361Z,99.90
2019-02-25T02:35:11.598Z,99.90
2019-02-25T02:37:40.943Z,99.90
2019-02-25T02:40:11.059Z,99.90
2019-02-25T02:42:44.699Z,99.90
2019-02-25T02:45:38.188Z,99.90
2019-02-25T02:48:23.290Z,99.90
2019-02-25T02:50:52.518Z,99.90
2019-02-25T02:53:21.859Z,99.90
2019-02-25T02:55:51.119Z,99.90
2019-02-25T02:58:20.415Z,99.90
2019-02-25T03:00:49.633Z,99.90
2019-02-25T03:03:18.908Z,99.90
2019-02-25T03:05:48.181Z,99.90
2019-02-25T03:08:17.513Z,99.90
2019-02-25T03:10:46.879Z,99.90
2019-02-25T03:13:16.241Z,99.90
2019-02-25T03:15:45.401Z,99.90
2019-02-25T03:18:14.689Z,99.90
2019-02-25T03:20:45.095Z,99.90
2019-02-25T03:23:14.508Z,99.90
2019-02-25T03:25:43.760Z,99.90
2019-02-25T03:28:13.161Z,99.90
2019-02-25T03:30:42.465Z,99.90
2019-02-25T03:33:11.736Z,99.90
2019-02-25T03:35:40.915Z,99.90
2019-02-25T03:38:10.181Z,99.90
2019-02-25T03:40:39.412Z,99.90
2019-02-25T03:43:08.693Z,99.90
2019-02-25T03:45:38.088Z,99.90
2019-02-25T03:48:07.306Z,99.90
2019-02-25T03:50:36.589Z,99.90
2019-02-25T03:53:05.944Z,99.90
2019-02-25T03:55:35.104Z,99.90
2019-02-25T03:58:04.346Z,99.90
2019-02-25T04:00:33.637Z,99.90
2019-02-25T04:03:02.850Z,99.90
2019-02-25T04:05:32.024Z,99.90
2019-02-25T04:08:01.372Z,99.90
2019-02-25T04:10:30.587Z,99.90
2019-02-25T04:12:59.819Z,99.90
2019-02-25T04:15:35.986Z,99.90
2019-02-25T04:18:05.199Z,99.90
2019-02-25T04:20:34.379Z,99.90
2019-02-25T04:23:03.682Z,99.90
2019-02-25T04:25:32.876Z,99.90
2019-02-25T04:28:02.199Z,99.90
2019-02-25T04:30:50.523Z,99.90
2019-02-25T04:33:19.715Z,99.90
2019-02-25T04:35:49.073Z,99.90
2019-02-25T04:38:18.303Z,99.90
2019-02-25T04:40:47.509Z,99.90
2019-02-25T04:43:16.852Z,99.90
2019-02-25T04:45:46.058Z,99.90
2019-02-25T04:48:15.372Z,99.90
2019-02-25T04:50:44.649Z,99.90
2019-02-25T04:53:13.983Z,99.90
2019-02-25T04:55:43.240Z,99.90
2019-02-25T04:58:12.511Z,99.90
2019-02-25T05:00:41.690Z,99.90
2019-02-25T05:03:11.005Z,99.90
2019-02-25T05:05:40.401Z,99.90
2019-02-25T05:08:09.724Z,99.90
2019-02-25T05:10:39.047Z,99.90
2019-02-25T05:13:08.664Z,99.90
2019-02-25T05:15:37.963Z,99.90
2019-02-25T05:18:07.172Z,99.90
2019-02-25T05:20:36.453Z,99.90
2019-02-25T05:23:05.738Z,99.90
2019-02-25T05:25:35.035Z,99.90
2019-02-25T05:28:05.967Z,99.90
2019-02-25T05:30:35.303Z,99.90
2019-02-25T05:33:04.551Z,99.90
2019-02-25T05:35:33.815Z,99.90
2019-02-25T05:38:02.999Z,99.90
2019-02-25T05:40:32.156Z,99.90
2019-02-25T05:43:01.463Z,99.90
2019-02-25T05:45:30.688Z,99.90
2019-02-25T05:47:59.989Z,99.90
2019-02-25T05:50:29.241Z,99.90
2019-02-25T05:52:58.415Z,99.90
2019-02-25T05:55:27.684Z,99.90
2019-02-25T05:57:56.934Z,99.90
2019-02-25T06:00:26.800Z,99.90
2019-02-25T06:02:56.017Z,99.90
2019-02-25T06:05:25.283Z,99.90
2019-02-25T06:07:54.470Z,99.90
2019-02-25T06:10:23.727Z,99.90
2019-02-25T06:12:53.026Z,99.90
2019-02-25T06:15:22.350Z,99.90
2019-02-25T06:17:51.568Z,99.90
2019-02-25T06:20:20.831Z,99.90
2019-02-25T06:22:50.044Z,99.90
2019-02-25T06:25:19.406Z,99.90
2019-02-25T06:27:48.746Z,99.90
2019-02-25T06:30:18.440Z,99.90
2019-02-25T06:32:47.749Z,99.90
2019-02-25T06:35:17.164Z,99.90
2019-02-25T06:37:46.422Z,99.90
2019-02-25T06:40:16.301Z,99.90
2019-02-25T06:42:45.660Z,99.90
2019-02-25T06:45:16.843Z,99.90
2019-02-25T06:47:46.121Z,99.90
2019-02-25T06:50:15.358Z,99.90
2019-02-25T06:52:44.529Z,99.90
2019-02-25T06:55:14.942Z,99.90
2019-02-25T06:57:44.177Z,99.90
2019-02-25T07:00:15.678Z,99.90
2019-02-25T07:02:44.951Z,99.90
2019-02-25T07:05:36.154Z,99.90
2019-02-25T07:08:17.905Z,99.90
2019-02-25T07:11:06.220Z,99.90
2019-02-25T07:13:50.884Z,99.90
2019-02-25T07:16:29.496Z,99.90
2019-02-25T07:19:20.098Z,99.90
2019-02-25T07:22:11.514Z,99.90
2019-02-25T07:24:58.327Z,99.90
2019-02-25T07:27:58.739Z,99.90
2019-02-25T07:30:50.135Z,99.90
2019-02-25T07:33:50.720Z,99.90
2019-02-25T07:36:50.999Z,99.90
2019-02-25T07:39:42.201Z,99.80
2019-02-25T07:42:27.522Z,99.90
2019-02-25T07:45:06.448Z,99.30
2019-02-25T07:47:47.218Z,97.80
2019-02-25T07:50:46.764Z,95.40
2019-02-25T07:53:27.122Z,94.90
2019-02-25T07:56:18.337Z,94.40
2019-02-25T07:59:11.875Z,94.00
2019-02-25T08:01:50.970Z,93.90
2019-02-25T08:04:28.902Z,93.60
2019-02-25T08:07:35.231Z,93.00
2019-02-25T08:10:42.040Z,91.80
2019-02-25T08:13:39.367Z,91.80
2019-02-25T08:16:30.783Z,92.20
2019-02-25T08:19:18.053Z,91.70
2019-02-25T08:22:06.278Z,91.70
2019-02-25T08:24:57.554Z,92.50
2019-02-25T08:27:47.490Z,92.10
2019-02-25T08:30:33.685Z,92.20
2019-02-25T08:33:28.186Z,92.40
2019-02-25T08:37:01.990Z,91.90
2019-02-25T08:39:39.485Z,91.30
2019-02-25T08:42:13.630Z,91.60
2019-02-25T08:45:00.426Z,90.30
2019-02-25T08:47:35.206Z,86.20
2019-02-25T08:50:07.342Z,82.40
2019-02-25T08:52:36.584Z,79.00
2019-02-25T08:55:07.784Z,75.50
2019-02-25T08:57:37.015Z,74.30
2019-02-25T09:00:08.534Z,74.10
2019-02-25T09:06:06.551Z,74.30
2019-02-25T09:08:36.095Z,71.00
2019-02-25T09:11:13.723Z,71.40
2019-02-25T09:13:36.175Z,71.90
2019-02-25T09:16:05.482Z,67.00
2019-02-25T09:18:34.661Z,69.70
2019-02-25T09:21:03.890Z,70.00
2019-02-25T09:23:33.178Z,70.30
2019-02-25T09:26:02.424Z,70.30
2019-02-25T09:28:31.598Z,68.60
2019-02-25T09:31:00.856Z,64.40
2019-02-25T09:33:30.062Z,62.20
2019-02-25T09:35:59.264Z,57.80
2019-02-25T09:38:28.564Z,58.00
2019-02-25T09:40:57.837Z,60.10
2019-02-25T09:43:27.146Z,60.80
2019-02-25T09:45:56.298Z,54.70
2019-02-25T09:48:25.613Z,48.70
2019-02-25T09:50:54.826Z,47.80
2019-02-25T09:53:23.986Z,42.60
2019-02-25T09:55:53.147Z,40.00
2019-02-25T09:58:23.245Z,41.10
2019-02-25T10:00:52.538Z,40.90
2019-02-25T10:03:21.726Z,41.10
2019-02-25T10:05:50.993Z,41.10
2019-02-25T10:08:20.188Z,39.80
2019-02-25T10:10:49.524Z,38.00
2019-02-25T10:13:18.723Z,38.20
2019-02-25T10:15:48.060Z,40.00
2019-02-25T10:18:17.291Z,38.50
2019-02-25T10:20:46.498Z,37.60
2019-02-25T10:23:15.947Z,35.90
2019-02-25T10:25:45.719Z,36.10
2019-02-25T10:28:14.965Z,35.50
2019-02-25T10:30:52.612Z,34.10
2019-02-25T10:33:15.154Z,34.40
2019-02-25T10:35:44.430Z,32.90
2019-02-25T10:38:13.582Z,33.30
2019-02-25T10:40:43.358Z,33.80
2019-02-25T10:43:13.788Z,33.30
2019-02-25T10:45:44.985Z,32.70
2019-02-25T10:48:15.203Z,33.90
2019-02-25T10:50:45.246Z,32.30
2019-02-25T10:53:15.701Z,32.90
2019-02-25T10:55:56.942Z,33.30
2019-02-25T10:58:26.973Z,32.90
2019-02-25T11:00:57.294Z,32.70
2019-02-25T11:03:26.571Z,32.10
2019-02-25T11:05:56.375Z,32.30
2019-02-25T11:08:27.245Z,32.60
2019-02-25T11:11:03.726Z,33.50
2019-02-25T11:13:34.621Z,34.00
2019-02-25T11:16:04.158Z,32.60
2019-02-25T11:18:33.502Z,33.40
2019-02-25T11:21:03.539Z,32.50
2019-02-25T11:23:33.655Z,32.90
2019-02-25T11:26:02.952Z,32.50
2019-02-25T11:28:33.914Z,33.20
2019-02-25T11:31:03.206Z,32.10
2019-02-25T11:33:34.292Z,33.20
2019-02-25T11:36:03.383Z,32.70
2019-02-25T11:38:35.466Z,33.60
2019-02-25T11:41:04.789Z,32.70
2019-02-25T11:43:34.530Z,33.30
2019-02-25T11:46:03.830Z,33.20
2019-02-25T11:48:33.085Z,33.50
2019-02-25T11:51:02.258Z,34.50
2019-02-25T11:53:31.468Z,33.70
2019-02-25T11:56:00.680Z,34.00
2019-02-25T11:58:29.981Z,34.20
2019-02-25T12:00:59.214Z,35.70
2019-02-25T12:03:28.464Z,37.60
2019-02-25T12:05:57.672Z,38.40
2019-02-25T12:08:26.935Z,37.30
2019-02-25T12:10:56.276Z,36.40
2019-02-25T12:13:25.544Z,37.60
2019-02-25T12:15:54.833Z,35.80
2019-02-25T12:18:24.199Z,36.30
2019-02-25T12:20:53.543Z,37.20
2019-02-25T12:23:22.760Z,36.80
2019-02-25T12:25:52.006Z,38.00
2019-02-25T12:28:21.342Z,37.80
2019-02-25T12:30:50.570Z,37.40
2019-02-25T12:33:19.771Z,37.40
2019-02-25T12:35:52.928Z,39.00
2019-02-25T12:38:22.165Z,38.90
2019-02-25T12:40:51.344Z,39.10
2019-02-25T12:43:20.588Z,37.10
2019-02-25T12:45:49.878Z,36.50
2019-02-25T12:48:19.169Z,36.80
2019-02-25T12:50:48.397Z,36.30
2019-02-25T12:53:17.767Z,38.70
2019-02-25T12:55:46.962Z,40.10
2019-02-25T12:58:16.271Z,39.80
2019-02-25T13:00:45.619Z,42.30
2019-02-25T13:03:14.979Z,44.70
2019-02-25T13:05:44.197Z,46.50
2019-02-25T13:08:13.367Z,47.90
2019-02-25T13:10:42.611Z,49.70
2019-02-25T13:13:11.822Z,51.20
2019-02-25T13:15:41.269Z,52.10
2019-02-25T13:18:10.629Z,51.90
2019-02-25T13:20:39.842Z,52.70
2019-02-25T13:23:09.092Z,54.00
2019-02-25T13:25:38.424Z,55.80
2019-02-25T13:28:07.722Z,55.60
2019-02-25T13:30:37.116Z,56.30
2019-02-25T13:33:06.440Z,57.50
2019-02-25T13:35:35.755Z,59.40
2019-02-25T13:38:05.079Z,60.50
2019-02-25T13:40:34.692Z,60.10
2019-02-25T13:43:04.154Z,62.50
2019-02-25T13:45:33.506Z,63.20
2019-02-25T13:48:02.772Z,64.60
2019-02-25T13:50:32.326Z,64.80
2019-02-25T13:53:01.626Z,65.80
2019-02-25T13:55:30.893Z,67.10
2019-02-25T13:58:00.431Z,67.90
2019-02-25T14:00:29.702Z,66.50
2019-02-25T14:02:59.120Z,65.60
2019-02-25T14:05:28.505Z,65.80
2019-02-25T14:07:57.934Z,65.00
2019-02-25T14:10:27.358Z,62.60
2019-02-25T14:12:56.834Z,62.90
2019-02-25T14:15:26.138Z,63.80
2019-02-25T14:17:55.520Z,64.70
2019-02-25T14:20:24.949Z,65.30
2019-02-25T14:22:54.251Z,66.20
2019-02-25T14:25:24.906Z,66.70
2019-02-25T14:27:54.354Z,68.50
2019-02-25T14:30:24.532Z,69.70
2019-02-25T14:32:53.935Z,70.80
2019-02-25T14:35:27.879Z,71.80
2019-02-25T14:38:00.974Z,72.90
2019-02-25T14:40:30.939Z,73.50
2019-02-25T14:43:00.079Z,75.10
2019-02-25T14:45:33.578Z,75.10
2019-02-25T14:48:03.180Z,75.60
2019-02-25T14:50:32.644Z,76.60
2019-02-25T14:53:03.923Z,78.30
2019-02-25T14:55:32.993Z,80.60
2019-02-25T14:58:04.800Z,81.10
2019-02-25T15:00:35.319Z,80.40
2019-02-25T15:03:04.756Z,82.00
2019-02-25T15:05:34.042Z,82.90
2019-02-25T15:08:03.724Z,83.40
2019-02-25T15:10:34.004Z,84.40
2019-02-25T15:13:06.024Z,85.80
2019-02-25T15:15:36.624Z,87.50
2019-02-25T15:18:06.294Z,88.60
2019-02-25T15:20:35.931Z,88.10
2019-02-25T15:23:07.439Z,88.40
2019-02-25T15:25:40.436Z,88.60
2019-02-25T15:28:11.354Z,89.00
2019-02-25T15:30:39.044Z,89.30
2019-02-25T15:33:08.670Z,90.10
2019-02-25T15:35:39.360Z,90.40
2019-02-25T15:38:08.950Z,90.30
2019-02-25T15:40:38.407Z,85.80
2019-02-25T15:43:12.662Z,80.70
2019-02-25T15:45:42.527Z,78.10
2019-02-25T15:48:16.817Z,78.50
2019-02-25T15:50:48.344Z,81.00
2019-02-25T15:53:17.309Z,84.30
2019-02-25T15:55:46.883Z,87.30
2019-02-25T15:58:16.616Z,89.80
2019-02-25T16:00:46.948Z,90.80
2019-02-25T16:03:20.284Z,91.60
2019-02-25T16:05:47.202Z,92.30
2019-02-25T16:08:20.945Z,93.10
2019-02-25T16:10:49.461Z,93.70
2019-02-25T16:13:19.339Z,94.40
2019-02-25T16:15:48.604Z,94.80
2019-02-25T16:18:18.156Z,95.40
2019-02-25T16:20:47.428Z,96.00
2019-02-25T16:23:16.772Z,96.50
2019-02-25T16:25:48.158Z,97.10
2019-02-25T16:28:17.542Z,97.40
2019-02-25T16:30:48.683Z,98.20
2019-02-25T16:33:17.965Z,98.70
2019-02-25T16:35:47.566Z,99.60
2019-02-25T16:38:16.817Z,99.90
2019-02-25T16:40:46.126Z,99.90
2019-02-25T16:43:15.494Z,99.90
2019-02-25T16:45:46.993Z,99.90
2019-02-25T16:48:17.261Z,99.90
2019-02-25T16:50:47.164Z,99.90
2019-02-25T16:53:18.437Z,99.90
2019-02-25T16:55:49.097Z,99.90
2019-02-25T16:58:18.589Z,99.90
2019-02-25T17:00:47.984Z,99.90
2019-02-25T17:03:17.301Z,99.90
2019-02-25T17:05:47.771Z,99.90
2019-02-25T17:08:20.789Z,99.90
2019-02-25T17:10:51.814Z,99.90
2019-02-25T17:13:21.070Z,99.90
2019-02-25T17:15:50.440Z,99.90
2019-02-25T17:18:19.795Z,99.90
2019-02-25T17:20:50.351Z,99.90
2019-02-25T17:23:19.871Z,99.90
2019-02-25T17:25:49.167Z,99.90
2019-02-25T17:28:20.236Z,99.90
2019-02-25T17:30:49.726Z,99.90
2019-02-25T17:33:19.003Z,99.90
2019-02-25T17:35:49.956Z,99.90
2019-02-25T17:38:22.052Z,99.90
2019-02-25T17:40:50.292Z,99.90
2019-02-25T17:43:20.218Z,99.90
2019-02-25T17:45:49.719Z,99.90
2019-02-25T17:48:21.001Z,99.90
2019-02-25T17:50:50.146Z,99.90
2019-02-25T17:53:19.436Z,99.90
2019-02-25T17:55:49.455Z,99.90
2019-02-25T17:58:20.330Z,99.90
2019-02-25T18:00:50.770Z,99.90
2019-02-25T18:03:21.696Z,99.90
2019-02-25T18:05:51.222Z,99.90
2019-02-25T18:08:20.534Z,99.90
2019-02-25T18:10:51.903Z,99.90
2019-02-25T18:13:22.196Z,99.90
2019-02-25T18:15:53.746Z,99.90
2019-02-25T18:18:24.572Z,99.90
2019-02-25T18:20:54.160Z,99.90
2019-02-25T18:23:23.516Z,99.90
2019-02-25T18:25:55.130Z,99.90
2019-02-25T18:28:23.881Z,99.90
2019-02-25T18:30:53.680Z,99.90
2019-02-25T18:33:24.765Z,99.90
2019-02-25T18:35:54.136Z,99.90
2019-02-25T18:38:24.968Z,99.90
2019-02-25T18:40:54.606Z,99.90
2019-02-25T18:43:24.733Z,99.90
2019-02-25T18:45:56.241Z,99.90
2019-02-25T18:48:27.438Z,99.90
2019-02-25T18:50:58.987Z,99.90
2019-02-25T18:53:27.922Z,99.90
2019-02-25T18:55:57.577Z,99.90
2019-02-25T18:58:27.189Z,99.90
2019-02-25T19:00:57.276Z,99.90
2019-02-25T19:03:27.404Z,99.90
2019-02-25T19:05:59.285Z,99.90
2019-02-25T19:08:29.117Z,99.90
2019-02-25T19:10:58.510Z,99.90
2019-02-25T19:13:29.581Z,99.90
2019-02-25T19:15:59.335Z,99.90
2019-02-25T19:18:32.257Z,99.90
2019-02-25T19:21:02.071Z,99.90
2019-02-25T19:23:34.946Z,99.90
2019-02-25T19:26:03.181Z,99.90
2019-02-25T19:28:32.618Z,99.90
2019-02-25T19:31:03.586Z,99.90
2019-02-25T19:33:36.540Z,99.90
2019-02-25T19:36:05.078Z,99.90
2019-02-25T19:38:36.726Z,99.90
2019-02-25T19:41:06.337Z,99.90
2019-02-25T19:43:35.693Z,99.90
2019-02-25T19:46:06.310Z,99.90
2019-02-25T19:48:36.444Z,99.90
2019-02-25T19:51:06.291Z,99.90
2019-02-25T19:53:36.568Z,99.90
2019-02-25T19:56:06.657Z,99.90
2019-02-25T19:58:38.319Z,99.90
2019-02-25T20:01:09.027Z,99.90
2019-02-25T20:03:39.939Z,99.90
2019-02-25T20:06:13.903Z,99.90
2019-02-25T20:08:39.931Z,99.90
2019-02-25T20:11:09.709Z,99.90
2019-02-25T20:13:42.736Z,99.90
2019-02-25T20:16:13.314Z,99.90
2019-02-25T20:18:41.972Z,99.90
2019-02-25T20:21:11.507Z,99.90
2019-02-25T20:23:40.860Z,99.90
2019-02-25T20:26:13.228Z,99.90
2019-02-25T20:28:42.977Z,99.90
2019-02-25T20:31:13.982Z,99.90
2019-02-25T20:33:43.167Z,99.90
2019-02-25T20:36:12.365Z,99.90
2019-02-25T20:38:41.715Z,99.90
2019-02-25T20:41:11.299Z,99.90
2019-02-25T20:43:40.642Z,99.90
2019-02-25T20:46:09.832Z,99.90
2019-02-25T20:48:39.096Z,99.90
2019-02-25T20:51:10.254Z,99.90
2019-02-25T20:53:39.352Z,99.90
2019-02-25T20:56:08.711Z,99.90
2019-02-25T20:58:39.731Z,99.90
2019-02-25T21:01:09.841Z,99.90
2019-02-25T21:03:43.833Z,99.90
2019-02-25T21:06:12.668Z,99.90
2019-02-25T21:08:42.866Z,99.90
2019-02-25T21:11:15.108Z,99.90
2019-02-25T21:13:44.245Z,99.90
2019-02-25T21:16:13.617Z,99.90
2019-02-25T21:18:44.452Z,99.90
2019-02-25T21:21:15.839Z,99.90
2019-02-25T21:23:44.773Z,99.90
2019-02-25T21:26:13.946Z,99.90
2019-02-25T21:28:43.138Z,99.90
2019-02-25T21:31:16.145Z,99.90
2019-02-25T21:33:47.416Z,99.90
2019-02-25T21:36:14.160Z,99.90
2019-02-25T21:38:45.212Z,99.90
2019-02-25T21:41:15.542Z,99.90
2019-02-25T21:43:45.417Z,99.90
2019-02-25T21:46:19.823Z,99.90
2019-02-25T21:48:50.958Z,99.90
2019-02-25T21:51:18.202Z,99.90
2019-02-25T21:53:47.536Z,99.90
2019-02-25T21:56:18.381Z,99.90
2019-02-25T21:58:48.761Z,99.90
2019-02-25T22:01:18.738Z,99.90
2019-02-25T22:03:48.733Z,99.90
2019-02-25T22:06:22.005Z,99.90
2019-02-25T22:08:52.071Z,99.90
2019-02-25T22:11:22.156Z,99.90
2019-02-25T22:13:51.612Z,99.90
2019-02-25T22:16:21.907Z,99.90
2019-02-25T22:18:52.139Z,99.90
2019-02-25T22:21:22.691Z,99.90
2019-02-25T22:23:54.273Z,99.90
2019-02-25T22:26:27.210Z,99.90
2019-02-25T22:28:55.399Z,99.90
2019-02-25T22:31:24.768Z,99.90
2019-02-25T22:33:54.008Z,99.90
2019-02-25T22:36:23.382Z,99.90
2019-02-25T22:38:52.568Z,99.90
2019-02-25T22:41:22.928Z,99.90
2019-02-25T22:43:52.703Z,99.90
2019-02-25T22:46:23.539Z,99.90
2019-02-25T22:48:52.898Z,99.90
2019-02-25T22:51:25.984Z,99.90
2019-02-25T22:53:53.283Z,99.90
2019-02-25T22:56:23.683Z,99.90
2019-02-25T22:58:53.966Z,99.90
2019-02-25T23:01:23.940Z,99.90
2019-02-25T23:03:55.115Z,99.90
2019-02-25T23:06:25.399Z,99.90
2019-02-25T23:08:56.332Z,99.90
2019-02-25T23:11:26.183Z,99.90
2019-02-25T23:13:55.503Z,99.90
2019-02-25T23:16:25.450Z,99.90
2019-02-25T23:18:54.806Z,99.90
2019-02-25T23:21:26.406Z,99.90
2019-02-25T23:23:55.884Z,99.90
2019-02-25T23:26:26.169Z,99.90
2019-02-25T23:28:57.573Z,99.90
2019-02-25T23:31:29.635Z,99.90
2019-02-25T23:33:57.619Z,99.90
2019-02-25T23:36:26.907Z,99.90
2019-02-25T23:38:57.229Z,99.90
2019-02-25T23:41:27.230Z,99.90
2019-02-25T23:43:58.243Z,99.90
2019-02-25T23:46:29.759Z,99.90
2019-02-25T23:48:58.550Z,99.90
2019-02-25T23:51:27.883Z,99.90
2019-02-25T23:53:57.679Z,99.90
2019-02-25T23:56:27.849Z,99.90
2019-02-25T23:58:58.345Z,99.90
